Time;durP1;ratioP1;P1;durP2;ratioP2;P2;SDS_P1;SDS_P2;PMS_P1;PMS_P2;Temp;Humidity;BMP_temperature;BMP_pressure;BME280_temperature;BME280_humidity;BME280_pressure;Samples;Min_cycle;Max_cycle;Signal;HPM_P1;HPM_P2
2024/03/25 00:00:18;;;;;;;4.90;2.95;;;5.80;99.10;;;;;;5037176;28;20025;-96
2024/03/25 00:02:43;;;;;;;5.07;3.55;;;5.80;99.90;;;;;;5036719;28;20014;-95
2024/03/25 00:05:09;;;;;;;4.70;3.55;;;5.80;99.30;;;;;;5036621;28;20021;-95
2024/03/25 00:07:38;;;;;;;7.07;4.38;;;5.80;98.70;;;;;;5036933;28;20052;-95
2024/03/25 00:10:08;;;;;;;4.57;2.88;;;5.80;99.20;;;;;;5037026;28;20029;-96
2024/03/25 00:12:34;;;;;;;4.63;2.70;;;5.80;99.20;;;;;;5036925;28;20006;-95
2024/03/25 00:15:00;;;;;;;4.35;3.17;;;5.80;98.90;;;;;;5036679;28;20007;-95
2024/03/25 00:17:26;;;;;;;4.68;2.78;;;5.70;99.70;;;;;;5037426;28;20012;-95
2024/03/25 00:19:52;;;;;;;5.10;3.42;;;5.80;99.60;;;;;;5037304;28;20006;-95
2024/03/25 00:22:19;;;;;;;3.78;3.05;;;5.80;99.80;;;;;;5036887;28;20069;-95
2024/03/25 00:24:46;;;;;;;6.68;2.38;;;5.70;99.80;;;;;;5036245;28;20534;-95
2024/03/25 00:27:12;;;;;;;5.93;3.33;;;5.80;99.90;;;;;;5036654;28;20057;-96
2024/03/25 00:29:37;;;;;;;5.57;3.63;;;5.80;99.80;;;;;;5019859;28;20030;-96
2024/03/25 00:32:04;;;;;;;5.45;2.72;;;5.80;99.90;;;;;;5036482;28;20022;-95
2024/03/25 00:34:29;;;;;;;6.05;3.05;;;5.70;99.90;;;;;;5036876;28;20014;-95
2024/03/25 00:36:55;;;;;;;4.72;2.35;;;5.70;99.60;;;;;;5037141;28;20014;-96
2024/03/25 00:39:21;;;;;;;8.43;3.58;;;5.70;99.90;;;;;;5036358;28;20041;-96
2024/03/25 00:41:47;;;;;;;5.28;3.10;;;5.80;99.60;;;;;;5019622;28;20049;-95
2024/03/25 00:44:13;;;;;;;8.63;3.60;;;5.70;99.40;;;;;;5036728;28;20041;-94
2024/03/25 00:46:41;;;;;;;5.57;3.47;;;5.70;98.90;;;;;;5029806;28;20049;-96
2024/03/25 00:49:09;;;;;;;5.72;3.45;;;5.70;99.80;;;;;;5027319;28;20025;-94
2024/03/25 00:51:35;;;;;;;8.25;2.83;;;5.80;99.60;;;;;;5036746;28;20014;-95
2024/03/25 00:54:01;;;;;;;6.60;4.25;;;5.80;99.80;;;;;;5036509;28;20033;-96
2024/03/25 00:56:27;;;;;;;5.60;3.13;;;5.70;99.60;;;;;;5036509;28;20029;-95
2024/03/25 00:58:53;;;;;;;4.93;2.85;;;5.70;99.80;;;;;;5035541;28;20034;-96
2024/03/25 01:01:18;;;;;;;5.32;2.78;;;5.80;99.90;;;;;;5027828;28;20042;-94
2024/03/25 01:03:44;;;;;;;6.28;2.92;;;5.70;99.90;;;;;;5020286;28;20078;-94
2024/03/25 01:06:10;;;;;;;9.40;2.72;;;5.70;99.90;;;;;;5039086;28;20034;-95
2024/03/25 01:08:35;;;;;;;7.78;3.65;;;5.70;99.90;;;;;;5039356;28;20014;-95
2024/03/25 01:11:01;;;;;;;6.90;3.42;;;5.70;99.80;;;;;;5038652;28;20014;-96
2024/03/25 01:13:26;;;;;;;6.85;3.80;;;5.70;99.60;;;;;;5037599;28;20030;-96
2024/03/25 01:15:52;;;;;;;5.10;3.97;;;5.60;99.90;;;;;;5021434;28;20074;-96
2024/03/25 01:18:18;;;;;;;6.28;3.42;;;5.60;99.90;;;;;;5039089;28;20025;-95
2024/03/25 01:20:46;;;;;;;5.35;3.03;;;5.70;99.90;;;;;;5038627;28;20017;-95
2024/03/25 01:23:12;;;;;;;4.90;3.47;;;5.60;99.90;;;;;;5039111;28;20021;-95
2024/03/25 01:25:38;;;;;;;3.75;3.05;;;5.60;99.90;;;;;;5038663;28;20036;-95
2024/03/25 01:28:03;;;;;;;4.53;3.42;;;5.60;99.90;;;;;;5038655;28;20014;-96
2024/03/25 01:30:29;;;;;;;5.60;3.17;;;5.60;99.90;;;;;;5038562;28;20010;-96
2024/03/25 01:32:55;;;;;;;6.40;2.85;;;5.60;99.90;;;;;;5037609;28;20044;-96
2024/03/25 01:35:21;;;;;;;3.53;2.55;;;5.60;99.90;;;;;;5037219;28;20522;-96
2024/03/25 01:37:47;;;;;;;6.00;3.25;;;5.50;99.90;;;;;;5037765;28;20064;-95
2024/03/25 01:40:14;;;;;;;5.47;2.58;;;5.50;99.90;;;;;;5038369;28;20105;-96
2024/03/25 01:42:41;;;;;;;5.40;3.75;;;5.50;99.90;;;;;;5038488;28;20014;-96
2024/03/25 01:45:09;;;;;;;4.93;3.35;;;5.50;99.90;;;;;;5038451;28;20030;-95
2024/03/25 01:47:35;;;;;;;7.03;3.15;;;5.50;99.90;;;;;;5039382;28;20022;-95
2024/03/25 01:50:03;;;;;;;4.75;2.58;;;5.60;99.90;;;;;;5038970;28;20021;-96
2024/03/25 01:52:29;;;;;;;;;;;5.60;99.90;;;;;;5039300;28;20010;-95
2024/03/25 01:54:54;;;;;;;5.80;3.08;;;5.50;99.90;;;;;;5038040;28;19968;-96
2024/03/25 01:57:21;;;;;;;8.25;4.38;;;5.50;99.90;;;;;;5021467;28;20030;-95
2024/03/25 01:59:47;;;;;;;5.28;3.63;;;5.50;99.90;;;;;;5037910;28;20026;-96
2024/03/25 02:02:13;;;;;;;4.50;3.05;;;5.50;99.90;;;;;;5037380;28;20033;-95
2024/03/25 02:04:41;;;;;;;5.72;3.65;;;5.50;99.90;;;;;;5036670;28;20018;-96
2024/03/25 02:07:08;;;;;;;5.95;3.00;;;5.50;99.90;;;;;;5020487;28;20041;-95
2024/03/25 02:09:35;;;;;;;6.22;3.33;;;5.50;99.90;;;;;;5036650;28;20006;-95
2024/03/25 02:12:02;;;;;;;3.85;2.80;;;5.40;99.90;;;;;;5035514;28;20006;-94
2024/03/25 02:14:27;;;;;;;4.60;2.95;;;5.50;99.90;;;;;;5036184;28;20025;-95
2024/03/25 02:16:53;;;;;;;4.55;2.35;;;5.40;99.90;;;;;;5035997;28;20010;-95
2024/03/25 02:19:19;;;;;;;4.72;3.03;;;5.40;99.90;;;;;;5027241;28;20055;-95
2024/03/25 02:21:46;;;;;;;4.72;2.58;;;5.40;99.90;;;;;;5018180;28;20072;-96
2024/03/25 02:24:14;;;;;;;7.72;3.20;;;5.40;99.90;;;;;;5034410;28;20982;-95
2024/03/25 02:26:40;;;;;;;7.45;3.08;;;5.40;99.90;;;;;;5035549;28;20028;-96
2024/03/25 02:29:05;;;;;;;5.28;2.92;;;5.40;99.90;;;;;;5036137;28;20034;-96
2024/03/25 02:31:34;;;;;;;4.57;2.50;;;5.40;99.90;;;;;;5036005;28;20082;-94
2024/03/25 02:33:59;;;;;;;9.20;3.80;;;5.30;99.90;;;;;;5028462;28;20018;-94
2024/03/25 02:36:25;;;;;;;4.57;2.15;;;5.40;99.90;;;;;;5034998;28;20044;-96
2024/03/25 02:38:54;;;;;;;4.07;2.88;;;5.30;99.90;;;;;;5035765;28;20229;-96
2024/03/25 02:41:22;;;;;;;3.80;2.85;;;5.30;99.90;;;;;;5035521;28;20029;-95
2024/03/25 02:43:48;;;;;;;5.43;2.47;;;5.30;99.90;;;;;;5035066;28;20029;-96
2024/03/25 02:46:14;;;;;;;4.50;2.42;;;5.40;99.90;;;;;;5034570;28;20021;-95
2024/03/25 02:48:40;;;;;;;7.70;2.85;;;5.30;99.90;;;;;;5033669;28;20018;-95
2024/03/25 02:51:05;;;;;;;5.72;2.80;;;5.30;99.90;;;;;;5034217;28;20018;-96
2024/03/25 02:53:31;;;;;;;3.75;2.47;;;5.30;99.90;;;;;;5017227;28;20026;-96
2024/03/25 02:55:56;;;;;;;4.63;2.25;;;5.30;99.90;;;;;;5033745;28;20045;-96
2024/03/25 02:58:22;;;;;;;4.75;2.63;;;5.30;99.90;;;;;;5034023;28;20028;-96
2024/03/25 03:00:48;;;;;;;6.10;2.90;;;5.30;99.90;;;;;;5033502;28;20062;-95
2024/03/25 03:03:13;;;;;;;5.63;3.20;;;5.30;99.90;;;;;;5033072;28;20017;-95
2024/03/25 03:05:39;;;;;;;4.63;2.88;;;5.30;99.90;;;;;;5032770;28;20006;-94
2024/03/25 03:08:05;;;;;;;7.47;2.90;;;5.30;99.90;;;;;;5032149;28;20025;-94
2024/03/25 03:10:30;;;;;;;3.72;2.55;;;5.20;99.90;;;;;;5032671;28;20468;-96
2024/03/25 03:12:56;;;;;;;6.40;3.33;;;5.20;99.90;;;;;;5023521;28;20049;-94
2024/03/25 03:15:22;;;;;;;6.03;2.60;;;5.20;99.90;;;;;;5013884;28;20026;-95
2024/03/25 03:17:47;;;;;;;6.45;3.42;;;5.20;99.90;;;;;;5015732;28;20033;-96
2024/03/25 03:20:13;;;;;;;7.45;3.53;;;5.20;99.90;;;;;;5035040;28;20022;-96
2024/03/25 03:22:38;;;;;;;7.18;2.75;;;5.20;99.90;;;;;;5028956;28;20070;-96
2024/03/25 03:25:04;;;;;;;7.13;2.65;;;5.20;99.90;;;;;;5035543;28;20018;-96
2024/03/25 03:27:30;;;;;;;5.55;4.25;;;5.20;99.90;;;;;;5032359;28;20030;-96
2024/03/25 03:29:56;;;;;;;5.25;3.25;;;5.20;99.90;;;;;;5032471;28;20048;-96
2024/03/25 03:32:21;;;;;;;4.82;3.65;;;5.20;99.90;;;;;;5016694;28;20026;-95
2024/03/25 03:34:47;;;;;;;3.33;2.35;;;5.20;99.90;;;;;;5021576;28;20057;-94
2024/03/25 03:37:13;;;;;;;9.10;3.72;;;5.30;99.90;;;;;;5015597;28;20026;-96
2024/03/25 03:39:38;;;;;;;6.55;3.08;;;5.20;99.90;;;;;;5032169;28;20029;-96
2024/03/25 03:42:04;;;;;;;6.03;3.03;;;5.20;99.90;;;;;;5031801;28;20057;-95
2024/03/25 03:44:29;;;;;;;7.00;3.42;;;5.30;99.90;;;;;;5015024;28;20097;-96
2024/03/25 03:46:55;;;;;;;4.35;3.10;;;5.20;99.90;;;;;;5023661;28;20010;-96
2024/03/25 03:49:21;;;;;;;5.65;3.22;;;5.30;99.90;;;;;;5032129;28;20029;-94
2024/03/25 03:51:46;;;;;;;6.40;3.10;;;5.20;99.90;;;;;;5032659;28;20032;-96
2024/03/25 03:54:12;;;;;;;5.38;3.80;;;5.20;99.90;;;;;;5032510;28;20030;-95
2024/03/25 03:56:38;;;;;;;6.57;3.47;;;5.30;99.90;;;;;;5033105;28;20014;-96
2024/03/25 03:59:04;;;;;;;7.22;3.30;;;5.20;99.90;;;;;;5032740;28;20010;-96
2024/03/25 04:01:29;;;;;;;8.60;2.97;;;5.20;99.90;;;;;;5033158;28;20070;-96
2024/03/25 04:03:55;;;;;;;4.75;3.38;;;5.30;99.90;;;;;;5032192;28;20037;-94
2024/03/25 04:06:21;;;;;;;8.35;3.13;;;5.30;99.90;;;;;;5033809;28;20034;-96
2024/03/25 04:08:46;;;;;;;7.20;3.15;;;5.30;99.90;;;;;;5016733;28;20370;-94
2024/03/25 04:11:12;;;;;;;5.10;3.72;;;5.20;99.90;;;;;;5033636;28;20026;-96
2024/03/25 04:13:38;;;;;;;7.28;3.05;;;5.20;99.90;;;;;;5008273;28;20030;-95
2024/03/25 04:16:05;;;;;;;5.78;3.20;;;5.20;99.90;;;;;;5030171;28;20018;-95
2024/03/25 04:18:34;;;;;;;5.00;2.42;;;5.20;99.90;;;;;;5033047;28;20086;-96
2024/03/25 04:21:00;;;;;;;4.97;3.70;;;5.20;99.90;;;;;;5032075;28;20026;-96
2024/03/25 04:23:26;;;;;;;4.13;2.85;;;5.20;99.90;;;;;;5014182;28;20048;-95
2024/03/25 04:25:52;;;;;;;5.30;3.45;;;5.20;99.90;;;;;;5029216;28;20105;-96
2024/03/25 04:28:20;;;;;;;5.80;3.58;;;5.20;99.90;;;;;;5031701;28;20002;-96
2024/03/25 04:30:52;;;;;;;7.50;4.00;;;5.20;99.90;;;;;;5024096;28;20079;-95
2024/03/25 04:33:18;;;;;;;7.20;3.15;;;5.20;99.90;;;;;;5021286;28;20018;-95
2024/03/25 04:35:44;;;;;;;7.78;2.85;;;5.20;99.90;;;;;;5036211;28;20036;-95
2024/03/25 04:38:10;;;;;;;6.97;3.00;;;5.20;99.90;;;;;;5035098;28;20053;-95
2024/03/25 04:40:36;;;;;;;8.60;3.90;;;5.10;99.90;;;;;;5030092;28;20018;-96
2024/03/25 04:43:02;;;;;;;5.97;2.95;;;5.10;99.90;;;;;;5034274;28;20014;-96
2024/03/25 04:45:28;;;;;;;5.90;3.83;;;5.10;99.90;;;;;;5017838;28;20022;-96
2024/03/25 04:47:53;;;;;;;5.03;2.75;;;5.00;99.90;;;;;;5036180;28;20105;-96
2024/03/25 04:50:19;;;;;;;9.27;3.05;;;5.00;99.90;;;;;;5032397;28;20062;-94
2024/03/25 04:52:45;;;;;;;4.65;3.83;;;5.00;99.90;;;;;;5032895;28;20018;-96
2024/03/25 04:55:10;;;;;;;6.47;3.55;;;5.00;99.90;;;;;;5033116;28;20022;-95
2024/03/25 04:57:36;;;;;;;6.88;3.88;;;5.00;99.90;;;;;;5030232;28;20500;-96
2024/03/25 05:00:02;;;;;;;7.40;3.58;;;4.90;99.90;;;;;;5015470;28;20105;-96
2024/03/25 05:02:28;;;;;;;7.22;3.75;;;4.90;99.90;;;;;;5027846;28;20030;-96
2024/03/25 05:04:54;;;;;;;9.93;3.45;;;4.90;99.90;;;;;;5024425;28;20026;-95
2024/03/25 05:07:19;;;;;;;6.30;3.58;;;4.90;99.90;;;;;;5028415;28;20030;-96
2024/03/25 05:09:45;;;;;;;7.22;3.33;;;4.90;99.90;;;;;;5037402;28;20002;-95
2024/03/25 05:12:11;;;;;;;8.55;3.60;;;4.90;99.90;;;;;;5034831;28;20037;-96
2024/03/25 05:14:36;;;;;;;5.75;4.75;;;4.80;99.90;;;;;;5018677;28;20029;-95
2024/03/25 05:17:05;;;;;;;4.63;3.08;;;4.80;99.90;;;;;;5036484;28;20014;-96
2024/03/25 05:19:31;;;;;;;10.68;4.30;;;4.70;99.90;;;;;;5035659;28;20082;-95
2024/03/25 05:21:59;;;;;;;5.50;3.78;;;4.70;99.90;;;;;;5033489;28;20045;-96
2024/03/25 05:24:28;;;;;;;6.38;4.10;;;4.70;99.90;;;;;;5024441;28;20037;-96
2024/03/25 05:26:53;;;;;;;7.75;4.10;;;4.70;99.90;;;;;;5023260;28;20045;-93
2024/03/25 05:29:19;;;;;;;7.18;3.80;;;4.60;99.90;;;;;;5020181;28;20022;-93
2024/03/25 05:32:05;;;;;;;9.13;3.20;;;4.70;99.90;;;;;;5020792;28;20044;-93
2024/03/25 05:34:31;;;;;;;7.82;3.22;;;4.70;99.90;;;;;;5019665;28;20034;-94
2024/03/25 05:36:57;;;;;;;6.95;3.58;;;4.70;99.90;;;;;;5026775;28;20113;-94
2024/03/25 05:39:23;;;;;;;7.03;3.40;;;4.70;99.90;;;;;;5025375;28;20103;-93
2024/03/25 05:41:49;;;;;;;9.93;4.18;;;4.70;99.90;;;;;;5025398;28;20022;-94
2024/03/25 05:44:15;;;;;;;7.82;3.58;;;4.70;99.90;;;;;;5012352;28;20045;-94
2024/03/25 05:46:41;;;;;;;6.93;3.72;;;4.70;99.90;;;;;;5026013;28;20030;-96
2024/03/25 05:49:06;;;;;;;8.25;3.65;;;4.70;99.90;;;;;;5027729;28;20037;-94
2024/03/25 05:51:35;;;;;;;8.38;3.28;;;4.70;99.90;;;;;;5026798;28;20030;-94
2024/03/25 05:54:01;;;;;;;5.75;3.40;;;4.70;99.90;;;;;;5026463;28;20764;-94
2024/03/25 05:56:30;;;;;;;6.57;3.25;;;4.80;99.90;;;;;;5026103;28;20026;-95
2024/03/25 05:59:00;;;;;;;7.00;3.95;;;4.80;99.90;;;;;;5024614;28;20030;-96
2024/03/25 06:01:26;;;;;;;5.88;3.03;;;4.80;99.90;;;;;;5030776;28;20030;-94
2024/03/25 06:03:52;;;;;;;8.43;3.13;;;4.80;99.90;;;;;;5030476;28;20066;-95
2024/03/25 06:06:18;;;;;;;6.10;3.08;;;4.90;99.90;;;;;;5031292;28;20034;-94
2024/03/25 06:08:44;;;;;;;8.93;3.63;;;4.90;99.90;;;;;;5013861;28;20138;-94
2024/03/25 06:11:10;;;;;;;7.53;3.65;;;4.80;99.90;;;;;;5029144;28;20048;-95
2024/03/25 06:13:35;;;;;;;9.85;3.83;;;4.90;99.90;;;;;;5028557;28;20018;-94
2024/03/25 06:16:01;;;;;;;8.30;4.75;;;4.90;99.90;;;;;;5026571;28;20030;-94
2024/03/25 06:18:27;;;;;;;6.85;3.85;;;4.90;99.90;;;;;;5027535;28;20057;-95
2024/03/25 06:20:53;;;;;;;6.97;4.07;;;5.00;99.90;;;;;;5035318;28;20021;-94
2024/03/25 06:23:23;;;;;;;8.18;4.13;;;5.00;99.90;;;;;;5035954;28;20073;-95
2024/03/25 06:25:49;;;;;;;6.30;4.50;;;5.10;99.90;;;;;;5015265;28;20022;-94
2024/03/25 06:28:15;;;;;;;5.75;3.42;;;5.20;99.90;;;;;;5030265;28;20038;-95
2024/03/25 06:36:09;;;;;;;6.20;3.35;;;5.40;99.90;;;;;;5035834;28;20028;-96
2024/03/25 06:38:38;;;;;;;6.47;3.58;;;5.50;99.90;;;;;;5035970;28;20022;-94
2024/03/25 06:41:03;;;;;;;8.23;3.60;;;5.60;99.90;;;;;;5014568;28;20082;-96
2024/03/25 06:43:29;;;;;;;7.75;4.00;;;5.80;99.90;;;;;;5010271;28;20054;-96
2024/03/25 06:45:55;;;;;;;8.48;3.20;;;5.90;99.90;;;;;;5020512;28;20112;-95
2024/03/25 06:48:20;;;;;;;23.55;9.85;;;6.00;99.90;;;;;;5030544;28;20034;-96
2024/03/25 06:50:57;;;;;;;9.88;3.55;;;6.00;99.90;;;;;;5028806;28;20025;-93
2024/03/25 06:53:23;;;;;;;4.53;3.22;;;6.10;98.90;;;;;;5013226;28;20018;-94
2024/03/25 06:56:06;;;;;;;6.30;3.10;;;6.20;98.40;;;;;;5021301;28;20110;-94
2024/03/25 06:58:35;;;;;;;16.85;7.88;;;6.30;97.30;;;;;;5035994;28;20021;-95
2024/03/25 07:01:05;;;;;;;8.60;5.22;;;6.30;97.30;;;;;;5036354;28;20090;-94
2024/03/25 07:03:31;;;;;;;5.85;3.15;;;6.30;96.60;;;;;;5025762;28;20041;-94
2024/03/25 07:05:59;;;;;;;8.38;3.42;;;6.40;95.70;;;;;;5029289;28;20093;-94
2024/03/25 07:08:24;;;;;;;6.47;4.28;;;6.40;96.20;;;;;;5030211;28;20097;-95
2024/03/25 07:10:50;;;;;;;5.55;4.70;;;6.50;95.90;;;;;;5032870;28;20022;-92
2024/03/25 07:13:16;;;;;;;4.53;3.47;;;6.60;95.80;;;;;;5027130;28;20016;-94
2024/03/25 07:15:43;;;;;;;7.00;2.88;;;6.50;95.90;;;;;;5025194;28;20022;-93
2024/03/25 07:18:10;;;;;;;7.82;3.88;;;6.50;95.40;;;;;;5027371;28;20049;-94
2024/03/25 07:20:36;;;;;;;6.55;4.20;;;6.40;94.60;;;;;;5030037;28;20006;-95
2024/03/25 07:23:03;;;;;;;8.23;3.63;;;6.50;95.30;;;;;;5032209;28;20021;-94
2024/03/25 07:25:29;;;;;;;6.63;3.60;;;6.50;94.00;;;;;;5031316;28;20040;-95
2024/03/25 07:27:55;;;;;;;5.47;3.75;;;6.60;95.80;;;;;;5032335;28;20041;-95
2024/03/25 07:30:27;;;;;;;11.25;5.07;;;6.70;96.20;;;;;;5032203;28;20029;-94
2024/03/25 07:32:53;;;;;;;8.43;4.25;;;6.70;94.70;;;;;;5031409;28;20036;-95
2024/03/25 07:35:22;;;;;;;9.30;3.75;;;6.70;93.90;;;;;;5026816;28;20066;-96
2024/03/25 07:37:51;;;;;;;5.35;3.42;;;6.70;94.40;;;;;;5027645;28;20014;-95
2024/03/25 07:40:20;;;;;;;6.13;3.28;;;6.80;95.30;;;;;;5025369;28;20032;-96
2024/03/25 07:42:45;;;;;;;5.95;3.58;;;6.90;95.30;;;;;;5024921;28;20014;-95
2024/03/25 07:45:11;;;;;;;7.50;4.50;;;7.00;92.30;;;;;;5024509;28;20045;-96
2024/03/25 07:47:39;;;;;;;5.70;3.40;;;7.00;92.10;;;;;;5027071;28;20026;-96
2024/03/25 07:50:08;;;;;;;7.15;3.35;;;7.00;90.60;;;;;;5030469;28;20036;-96
2024/03/25 07:52:39;;;;;;;8.45;3.85;;;7.00;91.80;;;;;;5019778;23;20050;-90
2024/03/25 07:55:08;;;;;;;5.55;3.13;;;7.10;90.90;;;;;;5014222;28;20029;-89
2024/03/25 07:57:42;;;;;;;6.50;3.97;;;7.20;90.70;;;;;;5014266;28;20055;-92
2024/03/25 08:00:09;;;;;;;9.15;4.07;;;7.20;90.20;;;;;;5015057;28;20052;-88
2024/03/25 08:02:35;;;;;;;8.38;3.03;;;7.30;88.20;;;;;;5015798;28;20033;-88
2024/03/25 08:05:01;;;;;;;8.65;5.25;;;7.30;90.10;;;;;;5016153;28;20032;-90
2024/03/25 08:07:27;;;;;;;10.70;4.78;;;7.40;89.80;;;;;;5019346;28;20061;-90
2024/03/25 08:09:52;;;;;;;6.88;2.85;;;7.50;89.90;;;;;;5016994;28;20397;-88
2024/03/25 08:12:18;;;;;;;7.10;3.90;;;7.50;88.00;;;;;;5005951;28;20022;-89
2024/03/25 08:14:44;;;;;;;5.40;3.40;;;7.50;88.60;;;;;;5017396;28;20091;-89
2024/03/25 08:17:09;;;;;;;7.18;4.43;;;7.70;88.40;;;;;;5000088;28;20296;-89
2024/03/25 08:19:35;;;;;;;7.15;4.25;;;7.70;86.80;;;;;;5004282;28;20040;-90
2024/03/25 08:22:01;;;;;;;6.00;3.67;;;7.80;87.40;;;;;;5021809;28;20030;-90
2024/03/25 08:24:26;;;;;;;5.68;3.63;;;7.90;88.10;;;;;;5000098;28;20076;-90
2024/03/25 08:26:52;;;;;;;8.48;4.10;;;8.10;85.50;;;;;;5034130;28;20469;-90
2024/03/25 08:29:17;;;;;;;6.22;3.25;;;8.20;85.50;;;;;;5023729;28;20037;-91
2024/03/25 08:31:43;;;;;;;7.75;3.03;;;8.30;81.70;;;;;;5001201;28;20550;-90
2024/03/25 08:34:09;;;;;;;5.60;4.32;;;8.40;82.40;;;;;;5018870;28;20033;-90
2024/03/25 08:36:35;;;;;;;8.10;3.78;;;8.50;80.70;;;;;;5019236;28;20040;-90
2024/03/25 08:39:00;;;;;;;7.75;3.40;;;8.40;81.00;;;;;;4989835;28;20032;-90
2024/03/25 08:41:26;;;;;;;10.48;3.20;;;8.60;81.40;;;;;;5000283;28;20038;-89
2024/03/25 08:43:52;;;;;;;17.25;7.32;;;8.60;80.40;;;;;;5019433;28;20088;-89
2024/03/25 08:46:18;;;;;;;7.82;4.68;;;8.60;80.80;;;;;;5007322;28;20054;-90
2024/03/25 08:48:44;;;;;;;6.65;3.92;;;8.70;80.90;;;;;;5000751;28;20030;-90
2024/03/25 08:51:09;;;;;;;6.00;2.85;;;8.70;80.80;;;;;;5018501;28;20049;-90
2024/03/25 08:53:35;;;;;;;9.82;2.67;;;8.70;81.70;;;;;;5001252;28;20030;-90
2024/03/25 08:56:01;;;;;;;49.63;20.88;;;8.70;80.00;;;;;;5016120;28;20045;-91
2024/03/25 08:58:26;;;;;;;33.08;14.23;;;8.70;81.70;;;;;;5019720;28;20022;-91
2024/03/25 09:00:52;;;;;;;9.13;4.78;;;8.70;79.90;;;;;;5018794;28;20040;-91
2024/03/25 09:03:17;;;;;;;6.43;3.10;;;8.80;78.60;;;;;;5028382;28;20033;-91
2024/03/25 09:05:43;;;;;;;7.03;3.28;;;9.00;77.70;;;;;;5018646;28;20030;-90
2024/03/25 09:08:11;;;;;;;5.65;3.95;;;9.10;77.70;;;;;;5020050;28;20022;-91
2024/03/25 09:13:23;;;;;;;6.55;3.53;;;9.60;77.20;;;;;;5019729;28;20072;-91
2024/03/25 09:15:49;;;;;;;8.60;3.30;;;9.80;70.90;;;;;;5019749;28;20022;-90
2024/03/25 09:18:15;;;;;;;7.57;2.88;;;10.00;73.20;;;;;;5019250;28;20029;-91
2024/03/25 09:20:40;;;;;;;7.20;3.42;;;10.00;73.50;;;;;;5018134;28;20025;-90
2024/03/25 09:23:07;;;;;;;5.78;2.83;;;10.20;71.50;;;;;;5018429;28;20290;-90
2024/03/25 09:25:33;;;;;;;5.78;2.90;;;10.20;70.20;;;;;;5023092;28;20018;-89
2024/03/25 09:27:58;;;;;;;5.88;3.60;;;10.50;68.40;;;;;;5015864;28;20031;-91
2024/03/25 09:30:24;;;;;;;5.80;2.88;;;10.60;64.40;;;;;;5000467;28;20093;-91
2024/03/25 09:32:50;;;;;;;6.28;4.20;;;10.50;65.30;;;;;;5017951;28;20070;-90
2024/03/25 09:35:16;;;;;;;6.85;3.40;;;10.50;63.70;;;;;;5018967;28;20026;-91
2024/03/25 09:37:42;;;;;;;5.30;3.28;;;10.50;63.70;;;;;;5015012;28;20113;-91
2024/03/25 09:40:09;;;;;;;6.75;3.03;;;10.70;62.50;;;;;;5018577;28;20084;-91
2024/03/25 09:42:49;;;;;;;5.20;2.95;;;10.80;61.40;;;;;;5017407;28;20017;-91
2024/03/25 09:45:18;;;;;;;6.03;2.47;;;10.90;62.80;;;;;;5016225;28;20018;-91
2024/03/25 09:47:47;;;;;;;4.45;2.45;;;11.00;61.60;;;;;;5018893;28;20397;-91
2024/03/25 09:50:19;;;;;;;7.18;2.80;;;11.20;60.80;;;;;;5018151;28;20488;-91
2024/03/25 09:52:48;;;;;;;6.00;2.80;;;11.30;61.30;;;;;;4998420;28;20103;-91
2024/03/25 09:55:14;;;;;;;5.15;3.17;;;11.30;61.80;;;;;;5001208;28;20018;-91
2024/03/25 09:57:42;;;;;;;3.92;2.42;;;11.40;58.10;;;;;;5017909;28;20034;-91
2024/03/25 10:00:09;;;;;;;5.57;3.22;;;11.40;55.40;;;;;;5023067;28;20033;-92
2024/03/25 10:02:40;;;;;;;9.73;3.03;;;11.50;53.50;;;;;;5017552;28;20030;-91
2024/03/25 10:05:07;;;;;;;3.65;2.30;;;11.50;54.10;;;;;;5000993;28;20043;-92
2024/03/25 10:07:33;;;;;;;4.22;2.65;;;12.00;52.20;;;;;;5018876;28;20038;-93
2024/03/25 10:10:06;;;;;;;4.45;2.55;;;12.30;49.80;;;;;;5020043;28;20026;-92
2024/03/25 10:12:33;;;;;;;3.50;2.40;;;12.40;46.60;;;;;;5001272;28;20507;-93
2024/03/25 10:15:02;;;;;;;6.40;1.70;;;12.40;45.70;;;;;;5016918;28;20471;-92
2024/03/25 10:17:30;;;;;;;4.18;1.83;;;12.60;45.50;;;;;;5002939;28;20029;-91
2024/03/25 10:19:55;;;;;;;7.88;2.58;;;13.00;46.90;;;;;;5021952;28;20034;-93
2024/03/25 10:22:21;;;;;;;4.50;2.45;;;13.00;44.00;;;;;;5015947;28;20029;-90
2024/03/25 10:24:48;;;;;;;3.42;2.47;;;12.70;46.20;;;;;;5025448;23;20133;-92
2024/03/25 10:27:52;;;;;;;2.33;1.67;;;12.90;47.10;;;;;;5022333;28;20548;-92
2024/03/25 10:30:28;;;;;;;3.85;2.30;;;13.20;43.40;;;;;;5002960;28;20165;-93
2024/03/25 10:33:09;;;;;;;3.70;2.13;;;13.60;45.00;;;;;;4998199;28;20047;-93
2024/03/25 10:35:38;;;;;;;6.95;1.88;;;13.70;43.90;;;;;;5005192;28;20029;-93
2024/03/25 10:38:18;;;;;;;3.88;1.95;;;13.80;42.00;;;;;;5006842;28;20179;-92
2024/03/25 10:40:45;;;;;;;5.75;1.58;;;13.70;38.90;;;;;;4987846;28;20038;-92
2024/03/25 10:43:18;;;;;;;;;;;13.70;37.80;;;;;;5006678;28;20665;-91
2024/03/25 10:45:47;;;;;;;4.00;1.90;;;13.80;39.10;;;;;;5016498;28;19944;-90
2024/03/25 10:48:32;;;;;;;2.53;1.27;;;13.90;37.10;;;;;;5007297;28;20018;-92
2024/03/25 10:51:03;;;;;;;3.28;2.03;;;14.00;37.90;;;;;;4986439;28;20026;-93
2024/03/25 10:53:35;;;;;;;7.07;2.45;;;14.00;37.50;;;;;;5000082;28;20049;-91
2024/03/25 10:56:16;;;;;;;4.60;1.52;;;14.10;38.30;;;;;;5003687;28;20042;-90
2024/03/25 10:58:47;;;;;;;3.85;1.48;;;14.20;37.10;;;;;;4986472;28;20053;-91
2024/03/25 11:01:25;;;;;;;4.00;2.20;;;14.50;37.00;;;;;;5001876;28;20028;-92
2024/03/25 11:03:59;;;;;;;3.20;1.77;;;14.30;37.50;;;;;;5003751;28;20908;-93
2024/03/25 11:06:28;;;;;;;4.88;3.03;;;14.50;37.80;;;;;;5000852;28;21205;-93
2024/03/25 11:09:02;;;;;;;3.50;1.92;;;14.70;38.70;;;;;;4987229;28;20034;-93
2024/03/25 11:11:35;;;;;;;3.60;1.65;;;15.00;34.90;;;;;;4983614;28;20710;-92
2024/03/25 11:14:04;;;;;;;5.00;1.70;;;15.40;34.70;;;;;;5004904;28;20104;-92
2024/03/25 11:16:37;;;;;;;4.18;1.85;;;15.40;36.10;;;;;;4985635;28;20034;-90
2024/03/25 11:19:11;;;;;;;3.88;1.88;;;15.00;36.60;;;;;;5000430;28;20029;-92
2024/03/25 11:22:06;;;;;;;;;;;14.40;38.00;;;;;;5014640;28;20041;-91
2024/03/25 11:24:32;;;;;;;4.65;1.63;;;14.20;37.60;;;;;;4995403;28;19959;-92
2024/03/25 11:27:00;;;;;;;11.18;4.35;;;13.60;38.30;;;;;;4998532;28;20585;-94
2024/03/25 11:29:30;;;;;;;4.00;2.03;;;13.10;38.10;;;;;;4990203;28;20042;-91
2024/03/25 11:31:58;;;;;;;5.43;2.47;;;13.30;39.70;;;;;;5006854;28;20025;-92
2024/03/25 11:34:24;;;;;;;6.15;2.40;;;13.70;37.60;;;;;;4982950;28;20033;-92
2024/03/25 11:36:51;;;;;;;5.35;1.65;;;13.40;37.10;;;;;;5001942;28;20050;-92
2024/03/25 11:39:18;;;;;;;4.40;2.17;;;13.90;38.50;;;;;;4985530;28;20022;-91
2024/03/25 11:41:44;;;;;;;5.35;1.95;;;14.30;36.70;;;;;;4993117;28;20052;-91
2024/03/25 11:44:10;;;;;;;4.47;2.17;;;14.60;35.80;;;;;;5000947;28;20397;-91
2024/03/25 11:46:39;;;;;;;6.60;3.42;;;14.80;35.60;;;;;;5001523;28;20025;-92
2024/03/25 11:49:12;;;;;;;4.57;2.15;;;14.30;35.90;;;;;;5006969;28;20053;-92
2024/03/25 11:51:41;;;;;;;5.35;2.70;;;13.90;36.50;;;;;;5006809;28;20519;-92
2024/03/25 11:54:10;;;;;;;3.08;1.70;;;13.80;37.00;;;;;;5018486;28;20022;-92
2024/03/25 11:56:40;;;;;;;6.50;1.67;;;14.10;35.60;;;;;;4999003;28;20064;-92
2024/03/25 11:59:08;;;;;;;3.22;1.70;;;14.20;35.90;;;;;;4999460;28;20399;-91
2024/03/25 12:01:34;;;;;;;3.50;1.48;;;14.10;35.40;;;;;;5015822;28;20424;-92
2024/03/25 12:04:32;;;;;;;2.42;1.77;;;13.90;35.90;;;;;;5017422;28;20032;-92
2024/03/25 12:06:58;;;;;;;6.97;4.05;;;13.90;36.60;;;;;;4963107;28;20152;-91
2024/03/25 12:12:08;;;;;;;3.92;1.85;;;14.80;37.70;;;;;;5017418;28;20125;-91
2024/03/25 12:14:37;;;;;;;2.20;1.67;;;15.30;35.00;;;;;;5013167;28;20053;-93
2024/03/25 12:17:03;;;;;;;2.78;1.40;;;15.90;32.30;;;;;;5017527;28;20022;-92
2024/03/25 12:19:30;;;;;;;2.72;1.55;;;15.90;31.80;;;;;;5019109;28;20029;-92
2024/03/25 12:22:03;;;;;;;3.80;2.20;;;16.30;32.60;;;;;;5017263;28;20018;-92
2024/03/25 12:24:36;;;;;;;5.65;2.03;;;16.40;30.60;;;;;;5017266;28;20056;-93
2024/03/25 12:27:03;;;;;;;3.42;2.13;;;16.40;31.60;;;;;;4999939;28;20037;-92
2024/03/25 12:29:28;;;;;;;2.22;1.95;;;16.50;30.00;;;;;;5015463;28;20029;-93
2024/03/25 12:31:58;;;;;;;1.70;1.35;;;16.30;30.80;;;;;;4998973;28;20030;-92
2024/03/25 12:34:26;;;;;;;2.20;1.10;;;16.50;31.40;;;;;;5017831;28;20102;-92
2024/03/25 12:37:06;;;;;;;4.20;1.73;;;17.00;29.70;;;;;;4998993;28;20028;-92
2024/03/25 12:39:31;;;;;;;3.22;1.48;;;17.00;30.70;;;;;;5014546;28;20022;-91
2024/03/25 12:42:04;;;;;;;2.00;1.30;;;16.70;31.90;;;;;;5016324;28;20046;-92
2024/03/25 12:44:30;;;;;;;3.50;1.60;;;16.50;31.50;;;;;;5017985;28;20564;-92
2024/03/25 12:46:59;;;;;;;2.40;1.02;;;16.80;30.20;;;;;;5018523;28;20022;-92
2024/03/25 12:49:34;;;;;;;2.03;1.83;;;16.90;30.10;;;;;;5017665;28;20091;-92
2024/03/25 12:52:07;;;;;;;3.42;1.20;;;17.10;29.60;;;;;;5018526;28;20026;-92
2024/03/25 12:54:33;;;;;;;2.83;1.20;;;17.10;29.10;;;;;;5018508;28;20026;-93
2024/03/25 12:56:59;;;;;;;1.75;1.23;;;18.00;29.90;;;;;;5019818;28;20026;-92
2024/03/25 12:59:28;;;;;;;4.40;1.73;;;18.50;29.30;;;;;;5017647;28;20081;-93
2024/03/25 13:01:59;;;;;;;2.08;1.05;;;18.50;28.50;;;;;;5019049;28;20497;-92
2024/03/25 13:04:28;;;;;;;3.75;2.00;;;18.10;28.80;;;;;;5002486;28;20030;-91
2024/03/25 13:06:54;;;;;;;3.35;1.65;;;16.90;29.70;;;;;;5017487;28;20057;-91